sensor_id;sensor_type;location;lat;lon;timestamp;temperature;humidity
38550;DHT22;24322;52.004;5.948;2022-07-29T00:00:53;17.00;91.70
38550;DHT22;24322;52.004;5.948;2022-07-29T00:03:18;17.10;91.80
38550;DHT22;24322;52.004;5.948;2022-07-29T00:05:44;17.00;92.00
38550;DHT22;24322;52.004;5.948;2022-07-29T00:08:10;17.00;92.10
38550;DHT22;24322;52.004;5.948;2022-07-29T00:10:35;17.00;92.40
38550;DHT22;24322;52.004;5.948;2022-07-29T00:13:01;17.00;92.60
38550;DHT22;24322;52.004;5.948;2022-07-29T00:15:27;16.90;92.60
38550;DHT22;24322;52.004;5.948;2022-07-29T00:17:53;16.90;92.60
38550;DHT22;24322;52.004;5.948;2022-07-29T00:20:19;16.90;93.00
38550;DHT22;24322;52.004;5.948;2022-07-29T00:22:45;16.90;93.10
38550;DHT22;24322;52.004;5.948;2022-07-29T00:25:12;16.80;93.30
38550;DHT22;24322;52.004;5.948;2022-07-29T00:27:38;16.80;93.60
38550;DHT22;24322;52.004;5.948;2022-07-29T00:30:05;16.80;93.60
38550;DHT22;24322;52.004;5.948;2022-07-29T00:32:31;16.80;93.90
38550;DHT22;24322;52.004;5.948;2022-07-29T00:34:57;16.70;94.00
38550;DHT22;24322;52.004;5.948;2022-07-29T00:37:41;16.70;94.00
38550;DHT22;24322;52.004;5.948;2022-07-29T00:40:07;16.70;94.00
38550;DHT22;24322;52.004;5.948;2022-07-29T00:42:48;16.70;94.20
38550;DHT22;24322;52.004;5.948;2022-07-29T00:45:14;16.60;94.60
38550;DHT22;24322;52.004;5.948;2022-07-29T00:47:40;16.60;94.80
38550;DHT22;24322;52.004;5.948;2022-07-29T00:50:07;16.60;94.80
38550;DHT22;24322;52.004;5.948;2022-07-29T00:52:36;16.60;95.10
38550;DHT22;24322;52.004;5.948;2022-07-29T00:55:06;16.60;95.30
38550;DHT22;24322;52.004;5.948;2022-07-29T00:57:34;16.60;95.30
38550;DHT22;24322;52.004;5.948;2022-07-29T01:00:00;16.60;95.50
38550;DHT22;24322;52.004;5.948;2022-07-29T01:02:25;16.60;95.50
38550;DHT22;24322;52.004;5.948;2022-07-29T01:04:52;16.60;95.60
38550;DHT22;24322;52.004;5.948;2022-07-29T01:07:18;16.60;95.60
38550;DHT22;24322;52.004;5.948;2022-07-29T01:09:45;16.50;95.70
38550;DHT22;24322;52.004;5.948;2022-07-29T01:12:15;16.60;95.80
38550;DHT22;24322;52.004;5.948;2022-07-29T01:14:42;16.60;95.80
38550;DHT22;24322;52.004;5.948;2022-07-29T01:17:14;16.50;95.80
38550;DHT22;24322;52.004;5.948;2022-07-29T01:30:22;16.50;96.20
38550;DHT22;24322;52.004;5.948;2022-07-29T01:32:54;16.50;96.20
38550;DHT22;24322;52.004;5.948;2022-07-29T01:35:41;16.50;96.20
38550;DHT22;24322;52.004;5.948;2022-07-29T01:38:12;16.60;96.20
38550;DHT22;24322;52.004;5.948;2022-07-29T01:40:52;16.50;96.30
38550;DHT22;24322;52.004;5.948;2022-07-29T01:43:31;16.60;96.30
38550;DHT22;24322;52.004;5.948;2022-07-29T01:46:01;16.50;96.20
38550;DHT22;24322;52.004;5.948;2022-07-29T01:48:36;16.50;96.30
38550;DHT22;24322;52.004;5.948;2022-07-29T01:51:12;16.50;96.40
38550;DHT22;24322;52.004;5.948;2022-07-29T01:53:46;16.50;96.30
38550;DHT22;24322;52.004;5.948;2022-07-29T01:56:13;16.60;96.20
38550;DHT22;24322;52.004;5.948;2022-07-29T01:58:41;16.60;96.10
38550;DHT22;24322;52.004;5.948;2022-07-29T02:01:09;16.60;96.10
38550;DHT22;24322;52.004;5.948;2022-07-29T02:03:38;16.50;96.30
38550;DHT22;24322;52.004;5.948;2022-07-29T02:06:05;16.50;96.30
38550;DHT22;24322;52.004;5.948;2022-07-29T02:08:32;16.50;96.20
38550;DHT22;24322;52.004;5.948;2022-07-29T02:11:00;16.50;96.30
38550;DHT22;24322;52.004;5.948;2022-07-29T02:13:28;16.50;96.30
38550;DHT22;24322;52.004;5.948;2022-07-29T02:15:55;16.40;96.40
38550;DHT22;24322;52.004;5.948;2022-07-29T02:18:23;16.40;96.40
38550;DHT22;24322;52.004;5.948;2022-07-29T02:20:53;16.40;96.40
38550;DHT22;24322;52.004;5.948;2022-07-29T02:23:24;16.50;96.30
38550;DHT22;24322;52.004;5.948;2022-07-29T02:25:53;16.50;96.20
38550;DHT22;24322;52.004;5.948;2022-07-29T02:28:22;16.50;96.20
38550;DHT22;24322;52.004;5.948;2022-07-29T02:30:50;16.40;96.50
38550;DHT22;24322;52.004;5.948;2022-07-29T02:33:18;16.40;96.50
38550;DHT22;24322;52.004;5.948;2022-07-29T02:35:46;16.40;96.60
38550;DHT22;24322;52.004;5.948;2022-07-29T02:38:15;16.40;96.60
38550;DHT22;24322;52.004;5.948;2022-07-29T02:41:10;16.50;96.50
38550;DHT22;24322;52.004;5.948;2022-07-29T02:43:37;16.40;96.80
38550;DHT22;24322;52.004;5.948;2022-07-29T02:46:10;16.50;96.80
38550;DHT22;24322;52.004;5.948;2022-07-29T02:48:43;16.50;96.80
38550;DHT22;24322;52.004;5.948;2022-07-29T02:51:19;16.50;96.70
38550;DHT22;24322;52.004;5.948;2022-07-29T02:53:49;16.40;96.90
38550;DHT22;24322;52.004;5.948;2022-07-29T02:56:18;16.30;97.30
38550;DHT22;24322;52.004;5.948;2022-07-29T02:58:54;16.10;97.90
38550;DHT22;24322;52.004;5.948;2022-07-29T03:01:23;16.00;98.60
38550;DHT22;24322;52.004;5.948;2022-07-29T03:03:51;15.90;99.00
38550;DHT22;24322;52.004;5.948;2022-07-29T03:06:20;15.70;99.40
38550;DHT22;24322;52.004;5.948;2022-07-29T03:08:47;15.70;99.90
38550;DHT22;24322;52.004;5.948;2022-07-29T03:11:13;15.60;99.90
38550;DHT22;24322;52.004;5.948;2022-07-29T03:13:40;15.60;99.90
38550;DHT22;24322;52.004;5.948;2022-07-29T03:16:07;15.50;99.90
38550;DHT22;24322;52.004;5.948;2022-07-29T03:18:34;15.50;99.90
38550;DHT22;24322;52.004;5.948;2022-07-29T03:21:00;15.40;99.90
38550;DHT22;24322;52.004;5.948;2022-07-29T03:23:26;15.20;99.90
38550;DHT22;24322;52.004;5.948;2022-07-29T03:25:53;15.00;99.90
38550;DHT22;24322;52.004;5.948;2022-07-29T03:28:19;14.90;99.90
38550;DHT22;24322;52.004;5.948;2022-07-29T03:30:45;14.80;99.90
38550;DHT22;24322;52.004;5.948;2022-07-29T03:33:11;14.70;99.90
38550;DHT22;24322;52.004;5.948;2022-07-29T03:35:37;14.70;99.90
38550;DHT22;24322;52.004;5.948;2022-07-29T03:38:04;14.60;99.90
38550;DHT22;24322;52.004;5.948;2022-07-29T03:40:42;14.40;99.90
38550;DHT22;24322;52.004;5.948;2022-07-29T03:43:10;14.30;99.90
38550;DHT22;24322;52.004;5.948;2022-07-29T03:45:37;14.20;99.90
38550;DHT22;24322;52.004;5.948;2022-07-29T03:48:09;14.10;99.90
38550;DHT22;24322;52.004;5.948;2022-07-29T03:50:35;14.00;99.90
38550;DHT22;24322;52.004;5.948;2022-07-29T03:53:02;13.90;99.90
38550;DHT22;24322;52.004;5.948;2022-07-29T03:55:29;13.80;99.90
38550;DHT22;24322;52.004;5.948;2022-07-29T03:57:58;13.80;99.90
38550;DHT22;24322;52.004;5.948;2022-07-29T04:00:26;13.80;99.90
38550;DHT22;24322;52.004;5.948;2022-07-29T04:02:52;13.80;99.90
38550;DHT22;24322;52.004;5.948;2022-07-29T04:05:18;13.80;99.90
38550;DHT22;24322;52.004;5.948;2022-07-29T04:07:48;13.80;99.90
38550;DHT22;24322;52.004;5.948;2022-07-29T04:10:16;13.90;99.90
38550;DHT22;24322;52.004;5.948;2022-07-29T04:12:42;13.90;99.90
38550;DHT22;24322;52.004;5.948;2022-07-29T04:15:09;13.90;99.90
38550;DHT22;24322;52.004;5.948;2022-07-29T04:17:34;14.00;99.90
38550;DHT22;24322;52.004;5.948;2022-07-29T04:20:00;13.90;99.90
38550;DHT22;24322;52.004;5.948;2022-07-29T04:22:26;13.90;99.90
38550;DHT22;24322;52.004;5.948;2022-07-29T04:24:51;13.90;99.90
38550;DHT22;24322;52.004;5.948;2022-07-29T04:27:17;13.90;99.90
38550;DHT22;24322;52.004;5.948;2022-07-29T04:29:42;14.00;99.90
38550;DHT22;24322;52.004;5.948;2022-07-29T04:32:08;14.00;99.90
38550;DHT22;24322;52.004;5.948;2022-07-29T04:34:34;14.00;99.90
38550;DHT22;24322;52.004;5.948;2022-07-29T04:37:00;14.00;99.90
38550;DHT22;24322;52.004;5.948;2022-07-29T04:39:25;14.10;99.90
38550;DHT22;24322;52.004;5.948;2022-07-29T04:41:51;14.00;99.90
38550;DHT22;24322;52.004;5.948;2022-07-29T04:44:17;14.00;99.90
38550;DHT22;24322;52.004;5.948;2022-07-29T04:46:42;14.00;99.90
38550;DHT22;24322;52.004;5.948;2022-07-29T04:49:08;14.10;99.90
38550;DHT22;24322;52.004;5.948;2022-07-29T04:51:34;14.10;99.90
38550;DHT22;24322;52.004;5.948;2022-07-29T04:54:00;14.20;99.90
38550;DHT22;24322;52.004;5.948;2022-07-29T04:56:26;14.10;99.90
38550;DHT22;24322;52.004;5.948;2022-07-29T04:58:52;14.20;99.90
38550;DHT22;24322;52.004;5.948;2022-07-29T05:01:18;14.20;99.90
38550;DHT22;24322;52.004;5.948;2022-07-29T05:03:44;14.10;99.90
38550;DHT22;24322;52.004;5.948;2022-07-29T05:06:10;14.10;99.90
38550;DHT22;24322;52.004;5.948;2022-07-29T05:08:36;14.10;99.90
38550;DHT22;24322;52.004;5.948;2022-07-29T05:11:02;14.20;99.90
38550;DHT22;24322;52.004;5.948;2022-07-29T05:13:29;14.20;99.90
38550;DHT22;24322;52.004;5.948;2022-07-29T05:15:54;14.20;99.90
38550;DHT22;24322;52.004;5.948;2022-07-29T05:18:20;14.20;99.90
38550;DHT22;24322;52.004;5.948;2022-07-29T05:20:46;14.20;99.90
38550;DHT22;24322;52.004;5.948;2022-07-29T05:23:12;14.30;99.90
38550;DHT22;24322;52.004;5.948;2022-07-29T05:25:40;14.30;99.90
38550;DHT22;24322;52.004;5.948;2022-07-29T05:28:06;14.40;99.90
38550;DHT22;24322;52.004;5.948;2022-07-29T05:30:31;14.40;99.90
38550;DHT22;24322;52.004;5.948;2022-07-29T05:32:57;14.40;99.90
38550;DHT22;24322;52.004;5.948;2022-07-29T05:35:23;14.40;99.90
38550;DHT22;24322;52.004;5.948;2022-07-29T05:37:48;14.40;99.90
38550;DHT22;24322;52.004;5.948;2022-07-29T05:40:14;14.50;99.90
38550;DHT22;24322;52.004;5.948;2022-07-29T05:42:40;14.60;99.90
38550;DHT22;24322;52.004;5.948;2022-07-29T05:45:06;14.70;99.90
38550;DHT22;24322;52.004;5.948;2022-07-29T05:47:31;14.70;99.90
38550;DHT22;24322;52.004;5.948;2022-07-29T05:49:57;14.80;99.90
38550;DHT22;24322;52.004;5.948;2022-07-29T05:52:23;14.90;99.90
38550;DHT22;24322;52.004;5.948;2022-07-29T05:54:49;14.90;99.90
38550;DHT22;24322;52.004;5.948;2022-07-29T05:57:19;15.00;99.90
38550;DHT22;24322;52.004;5.948;2022-07-29T05:59:45;15.10;99.90
38550;DHT22;24322;52.004;5.948;2022-07-29T06:02:11;15.10;99.90
38550;DHT22;24322;52.004;5.948;2022-07-29T06:04:36;15.20;99.90
38550;DHT22;24322;52.004;5.948;2022-07-29T06:07:02;15.20;99.90
38550;DHT22;24322;52.004;5.948;2022-07-29T06:09:28;15.40;99.90
38550;DHT22;24322;52.004;5.948;2022-07-29T06:11:54;15.50;99.90
38550;DHT22;24322;52.004;5.948;2022-07-29T06:14:19;15.60;99.90
38550;DHT22;24322;52.004;5.948;2022-07-29T06:16:45;15.70;99.90
38550;DHT22;24322;52.004;5.948;2022-07-29T06:19:11;15.80;99.90
38550;DHT22;24322;52.004;5.948;2022-07-29T06:21:44;15.90;99.90
38550;DHT22;24322;52.004;5.948;2022-07-29T06:24:14;15.90;99.90
38550;DHT22;24322;52.004;5.948;2022-07-29T06:26:41;15.90;99.90
38550;DHT22;24322;52.004;5.948;2022-07-29T06:29:08;15.90;99.90
38550;DHT22;24322;52.004;5.948;2022-07-29T06:31:36;16.00;99.90
38550;DHT22;24322;52.004;5.948;2022-07-29T06:34:02;16.10;99.90
38550;DHT22;24322;52.004;5.948;2022-07-29T06:36:27;16.20;99.90
38550;DHT22;24322;52.004;5.948;2022-07-29T06:38:53;16.30;99.90
38550;DHT22;24322;52.004;5.948;2022-07-29T06:41:18;16.40;99.90
38550;DHT22;24322;52.004;5.948;2022-07-29T06:43:45;16.40;99.90
38550;DHT22;24322;52.004;5.948;2022-07-29T06:46:13;16.50;99.90
38550;DHT22;24322;52.004;5.948;2022-07-29T06:48:39;16.60;99.90
38550;DHT22;24322;52.004;5.948;2022-07-29T06:51:07;16.80;99.90
38550;DHT22;24322;52.004;5.948;2022-07-29T06:53:33;16.90;99.90
38550;DHT22;24322;52.004;5.948;2022-07-29T06:56:00;17.00;99.90
38550;DHT22;24322;52.004;5.948;2022-07-29T06:58:27;17.20;99.90
38550;DHT22;24322;52.004;5.948;2022-07-29T07:00:53;17.30;99.90
38550;DHT22;24322;52.004;5.948;2022-07-29T07:03:19;17.40;99.90
38550;DHT22;24322;52.004;5.948;2022-07-29T07:05:45;17.60;99.90
38550;DHT22;24322;52.004;5.948;2022-07-29T07:08:12;17.70;99.90
38550;DHT22;24322;52.004;5.948;2022-07-29T07:10:38;17.80;99.90
38550;DHT22;24322;52.004;5.948;2022-07-29T07:13:04;17.90;99.90
38550;DHT22;24322;52.004;5.948;2022-07-29T07:15:30;18.00;99.90
38550;DHT22;24322;52.004;5.948;2022-07-29T07:17:56;18.10;99.90
38550;DHT22;24322;52.004;5.948;2022-07-29T07:20:23;18.20;99.90
38550;DHT22;24322;52.004;5.948;2022-07-29T07:22:49;18.20;99.90
38550;DHT22;24322;52.004;5.948;2022-07-29T07:25:14;18.30;99.90
38550;DHT22;24322;52.004;5.948;2022-07-29T07:27:40;18.40;99.90
38550;DHT22;24322;52.004;5.948;2022-07-29T07:30:07;18.50;99.90
38550;DHT22;24322;52.004;5.948;2022-07-29T07:32:33;18.40;99.90
38550;DHT22;24322;52.004;5.948;2022-07-29T07:34:59;18.40;99.90
38550;DHT22;24322;52.004;5.948;2022-07-29T07:37:25;18.40;99.90
38550;DHT22;24322;52.004;5.948;2022-07-29T07:39:51;18.40;99.90
38550;DHT22;24322;52.004;5.948;2022-07-29T07:42:18;18.40;99.90
38550;DHT22;24322;52.004;5.948;2022-07-29T07:44:44;18.30;99.90
38550;DHT22;24322;52.004;5.948;2022-07-29T07:47:11;18.20;99.90
38550;DHT22;24322;52.004;5.948;2022-07-29T07:49:37;18.20;99.90
38550;DHT22;24322;52.004;5.948;2022-07-29T07:52:03;18.30;99.90
38550;DHT22;24322;52.004;5.948;2022-07-29T07:54:29;18.20;99.90
38550;DHT22;24322;52.004;5.948;2022-07-29T07:56:54;18.20;99.90
38550;DHT22;24322;52.004;5.948;2022-07-29T07:59:20;18.20;99.90
38550;DHT22;24322;52.004;5.948;2022-07-29T08:01:46;18.10;99.90
38550;DHT22;24322;52.004;5.948;2022-07-29T08:04:11;18.00;99.90
38550;DHT22;24322;52.004;5.948;2022-07-29T08:06:37;18.00;99.90
38550;DHT22;24322;52.004;5.948;2022-07-29T08:09:04;18.10;99.90
38550;DHT22;24322;52.004;5.948;2022-07-29T08:11:30;18.20;99.90
38550;DHT22;24322;52.004;5.948;2022-07-29T08:13:56;18.20;99.90
38550;DHT22;24322;52.004;5.948;2022-07-29T08:16:21;18.30;99.90
38550;DHT22;24322;52.004;5.948;2022-07-29T08:18:47;18.40;99.90
38550;DHT22;24322;52.004;5.948;2022-07-29T08:21:14;18.50;99.90
38550;DHT22;24322;52.004;5.948;2022-07-29T08:23:40;18.50;99.90
38550;DHT22;24322;52.004;5.948;2022-07-29T08:26:12;18.60;99.90
38550;DHT22;24322;52.004;5.948;2022-07-29T08:28:39;18.80;99.90
38550;DHT22;24322;52.004;5.948;2022-07-29T08:31:05;18.90;99.90
38550;DHT22;24322;52.004;5.948;2022-07-29T08:33:31;19.10;99.90
38550;DHT22;24322;52.004;5.948;2022-07-29T08:35:57;19.30;99.90
38550;DHT22;24322;52.004;5.948;2022-07-29T08:38:23;19.50;99.90
38550;DHT22;24322;52.004;5.948;2022-07-29T08:40:49;19.50;99.90
38550;DHT22;24322;52.004;5.948;2022-07-29T08:43:14;19.60;99.90
38550;DHT22;24322;52.004;5.948;2022-07-29T08:45:47;19.60;99.90
38550;DHT22;24322;52.004;5.948;2022-07-29T08:48:15;19.60;99.70
38550;DHT22;24322;52.004;5.948;2022-07-29T08:50:45;19.60;99.90
38550;DHT22;24322;52.004;5.948;2022-07-29T08:53:13;19.50;99.90
38550;DHT22;24322;52.004;5.948;2022-07-29T08:55:41;19.50;99.90
38550;DHT22;24322;52.004;5.948;2022-07-29T08:58:08;19.50;99.90
38550;DHT22;24322;52.004;5.948;2022-07-29T09:00:37;19.50;99.90
38550;DHT22;24322;52.004;5.948;2022-07-29T09:03:04;19.40;99.90
38550;DHT22;24322;52.004;5.948;2022-07-29T09:05:30;19.50;99.90
38550;DHT22;24322;52.004;5.948;2022-07-29T09:07:57;19.50;99.90
38550;DHT22;24322;52.004;5.948;2022-07-29T09:10:22;19.60;99.90
38550;DHT22;24322;52.004;5.948;2022-07-29T09:12:48;19.50;99.90
38550;DHT22;24322;52.004;5.948;2022-07-29T09:15:14;19.50;99.90
38550;DHT22;24322;52.004;5.948;2022-07-29T09:20:15;19.60;99.90
38550;DHT22;24322;52.004;5.948;2022-07-29T09:22:41;19.50;99.90
38550;DHT22;24322;52.004;5.948;2022-07-29T09:25:07;19.50;99.90
38550;DHT22;24322;52.004;5.948;2022-07-29T09:27:33;19.50;99.90
38550;DHT22;24322;52.004;5.948;2022-07-29T09:30:09;19.50;99.90
38550;DHT22;24322;52.004;5.948;2022-07-29T09:32:57;19.60;99.90
38550;DHT22;24322;52.004;5.948;2022-07-29T09:35:25;19.70;99.90
38550;DHT22;24322;52.004;5.948;2022-07-29T09:37:51;19.70;99.90
38550;DHT22;24322;52.004;5.948;2022-07-29T09:40:17;19.80;99.70
38550;DHT22;24322;52.004;5.948;2022-07-29T09:42:44;19.80;99.90
38550;DHT22;24322;52.004;5.948;2022-07-29T09:45:10;19.80;99.70
38550;DHT22;24322;52.004;5.948;2022-07-29T09:47:45;19.80;99.30
38550;DHT22;24322;52.004;5.948;2022-07-29T09:50:12;19.70;99.40
38550;DHT22;24322;52.004;5.948;2022-07-29T09:52:51;19.70;99.60
38550;DHT22;24322;52.004;5.948;2022-07-29T09:55:18;19.70;99.90
38550;DHT22;24322;52.004;5.948;2022-07-29T09:57:45;19.70;99.90
38550;DHT22;24322;52.004;5.948;2022-07-29T10:00:16;19.70;99.90
38550;DHT22;24322;52.004;5.948;2022-07-29T10:02:44;19.70;99.90
38550;DHT22;24322;52.004;5.948;2022-07-29T10:07:43;19.80;99.90
38550;DHT22;24322;52.004;5.948;2022-07-29T10:10:09;19.90;99.90
38550;DHT22;24322;52.004;5.948;2022-07-29T10:12:57;20.10;99.90
38550;DHT22;24322;52.004;5.948;2022-07-29T10:15:26;20.50;99.50
38550;DHT22;24322;52.004;5.948;2022-07-29T10:17:54;21.10;98.60
38550;DHT22;24322;52.004;5.948;2022-07-29T10:20:21;21.70;97.80
38550;DHT22;24322;52.004;5.948;2022-07-29T10:22:48;22.30;96.00
38550;DHT22;24322;52.004;5.948;2022-07-29T10:25:15;23.00;95.80
38550;DHT22;24322;52.004;5.948;2022-07-29T10:27:42;23.90;94.60
38550;DHT22;24322;52.004;5.948;2022-07-29T10:30:08;24.70;92.60
38550;DHT22;24322;52.004;5.948;2022-07-29T10:36:04;26.40;82.60
38550;DHT22;24322;52.004;5.948;2022-07-29T10:38:47;26.80;82.20
38550;DHT22;24322;52.004;5.948;2022-07-29T10:44:00;28.00;78.80
38550;DHT22;24322;52.004;5.948;2022-07-29T10:46:27;28.70;77.30
38550;DHT22;24322;52.004;5.948;2022-07-29T10:57:26;29.90;71.10
38550;DHT22;24322;52.004;5.948;2022-07-29T11:05:03;30.50;64.70
38550;DHT22;24322;52.004;5.948;2022-07-29T11:07:29;30.30;65.40
38550;DHT22;24322;52.004;5.948;2022-07-29T11:20:44;28.30;68.00
38550;DHT22;24322;52.004;5.948;2022-07-29T11:26:20;28.30;72.40
38550;DHT22;24322;52.004;5.948;2022-07-29T11:31:37;28.20;67.70
38550;DHT22;24322;52.004;5.948;2022-07-29T11:39:37;27.70;65.60
38550;DHT22;24322;52.004;5.948;2022-07-29T11:44:59;27.30;63.30
38550;DHT22;24322;52.004;5.948;2022-07-29T11:47:27;27.00;66.00
38550;DHT22;24322;52.004;5.948;2022-07-29T11:49:54;27.10;68.60
38550;DHT22;24322;52.004;5.948;2022-07-29T11:52:20;27.20;71.50
38550;DHT22;24322;52.004;5.948;2022-07-29T11:54:50;27.30;66.90
38550;DHT22;24322;52.004;5.948;2022-07-29T11:57:17;27.20;65.80
38550;DHT22;24322;52.004;5.948;2022-07-29T11:59:45;27.30;66.50
38550;DHT22;24322;52.004;5.948;2022-07-29T12:02:11;27.20;64.70
38550;DHT22;24322;52.004;5.948;2022-07-29T12:04:54;27.20;67.50
38550;DHT22;24322;52.004;5.948;2022-07-29T12:07:29;27.00;66.90
38550;DHT22;24322;52.004;5.948;2022-07-29T12:09:56;27.10;69.60
38550;DHT22;24322;52.004;5.948;2022-07-29T12:12:22;27.40;68.00
38550;DHT22;24322;52.004;5.948;2022-07-29T12:14:48;27.50;67.70
38550;DHT22;24322;52.004;5.948;2022-07-29T12:17:32;27.80;68.10
38550;DHT22;24322;52.004;5.948;2022-07-29T12:20:00;28.20;70.30
38550;DHT22;24322;52.004;5.948;2022-07-29T12:22:29;28.50;66.90
38550;DHT22;24322;52.004;5.948;2022-07-29T12:25:01;28.80;65.20
38550;DHT22;24322;52.004;5.948;2022-07-29T12:27:28;29.00;62.80
38550;DHT22;24322;52.004;5.948;2022-07-29T12:30:04;29.10;62.80
38550;DHT22;24322;52.004;5.948;2022-07-29T12:32:34;29.40;63.00
38550;DHT22;24322;52.004;5.948;2022-07-29T12:35:36;29.50;60.20
38550;DHT22;24322;52.004;5.948;2022-07-29T12:37:55;29.60;62.30
38550;DHT22;24322;52.004;5.948;2022-07-29T12:40:21;29.20;59.30
38550;DHT22;24322;52.004;5.948;2022-07-29T12:45:41;29.00;62.80
38550;DHT22;24322;52.004;5.948;2022-07-29T12:48:07;29.10;59.60
38550;DHT22;24322;52.004;5.948;2022-07-29T12:50:37;29.00;59.60
38550;DHT22;24322;52.004;5.948;2022-07-29T12:53:16;29.00;60.70
38550;DHT22;24322;52.004;5.948;2022-07-29T12:55:50;29.30;60.00
38550;DHT22;24322;52.004;5.948;2022-07-29T12:58:36;29.50;59.40
38550;DHT22;24322;52.004;5.948;2022-07-29T13:01:03;29.60;59.40
38550;DHT22;24322;52.004;5.948;2022-07-29T13:03:45;29.70;56.50
38550;DHT22;24322;52.004;5.948;2022-07-29T13:06:44;29.70;55.90
38550;DHT22;24322;52.004;5.948;2022-07-29T13:09:19;29.60;56.20
38550;DHT22;24322;52.004;5.948;2022-07-29T13:11:52;29.20;57.50
38550;DHT22;24322;52.004;5.948;2022-07-29T13:14:45;29.20;59.40
38550;DHT22;24322;52.004;5.948;2022-07-29T13:17:12;29.20;56.30
38550;DHT22;24322;52.004;5.948;2022-07-29T13:19:43;29.20;58.40
38550;DHT22;24322;52.004;5.948;2022-07-29T13:22:12;29.40;56.90
38550;DHT22;24322;52.004;5.948;2022-07-29T13:24:59;29.20;57.10
38550;DHT22;24322;52.004;5.948;2022-07-29T13:27:29;28.90;56.60
38550;DHT22;24322;52.004;5.948;2022-07-29T13:29:58;28.90;56.90
38550;DHT22;24322;52.004;5.948;2022-07-29T13:32:26;29.00;57.90
38550;DHT22;24322;52.004;5.948;2022-07-29T13:34:52;29.10;57.10
38550;DHT22;24322;52.004;5.948;2022-07-29T13:37:19;29.20;54.60
38550;DHT22;24322;52.004;5.948;2022-07-29T13:39:45;29.20;56.30
38550;DHT22;24322;52.004;5.948;2022-07-29T13:42:11;29.40;57.00
38550;DHT22;24322;52.004;5.948;2022-07-29T13:44:39;29.50;56.10
38550;DHT22;24322;52.004;5.948;2022-07-29T13:47:05;29.30;53.60
38550;DHT22;24322;52.004;5.948;2022-07-29T13:49:31;29.30;55.80
38550;DHT22;24322;52.004;5.948;2022-07-29T13:51:57;29.30;54.70
38550;DHT22;24322;52.004;5.948;2022-07-29T13:54:22;29.10;53.50
38550;DHT22;24322;52.004;5.948;2022-07-29T13:56:50;29.00;53.60
38550;DHT22;24322;52.004;5.948;2022-07-29T13:59:16;28.90;55.90
38550;DHT22;24322;52.004;5.948;2022-07-29T14:01:42;28.90;56.10
38550;DHT22;24322;52.004;5.948;2022-07-29T14:04:09;28.70;54.10
38550;DHT22;24322;52.004;5.948;2022-07-29T14:06:35;28.50;55.90
38550;DHT22;24322;52.004;5.948;2022-07-29T14:09:03;28.40;56.50
38550;DHT22;24322;52.004;5.948;2022-07-29T14:11:32;28.40;56.40
38550;DHT22;24322;52.004;5.948;2022-07-29T14:13:58;28.40;56.60
38550;DHT22;24322;52.004;5.948;2022-07-29T14:16:23;28.30;57.80
38550;DHT22;24322;52.004;5.948;2022-07-29T14:18:49;28.20;56.80
38550;DHT22;24322;52.004;5.948;2022-07-29T14:21:14;28.20;58.40
38550;DHT22;24322;52.004;5.948;2022-07-29T14:23:40;28.10;56.80
38550;DHT22;24322;52.004;5.948;2022-07-29T14:26:06;27.90;57.90
38550;DHT22;24322;52.004;5.948;2022-07-29T14:28:32;27.80;56.60
38550;DHT22;24322;52.004;5.948;2022-07-29T14:30:57;27.70;56.90
38550;DHT22;24322;52.004;5.948;2022-07-29T14:33:23;27.70;56.90
38550;DHT22;24322;52.004;5.948;2022-07-29T14:35:49;27.60;55.70
38550;DHT22;24322;52.004;5.948;2022-07-29T14:38:14;27.40;57.30
38550;DHT22;24322;52.004;5.948;2022-07-29T14:40:40;27.30;55.30
38550;DHT22;24322;52.004;5.948;2022-07-29T14:43:05;27.10;57.00
38550;DHT22;24322;52.004;5.948;2022-07-29T14:45:31;27.00;58.60
38550;DHT22;24322;52.004;5.948;2022-07-29T14:47:57;27.20;58.60
38550;DHT22;24322;52.004;5.948;2022-07-29T14:50:22;27.30;58.30
38550;DHT22;24322;52.004;5.948;2022-07-29T14:52:48;27.40;58.10
38550;DHT22;24322;52.004;5.948;2022-07-29T14:55:14;27.50;57.00
38550;DHT22;24322;52.004;5.948;2022-07-29T14:57:39;27.40;56.90
38550;DHT22;24322;52.004;5.948;2022-07-29T15:00:06;27.30;56.50
38550;DHT22;24322;52.004;5.948;2022-07-29T15:02:33;27.30;57.50
38550;DHT22;24322;52.004;5.948;2022-07-29T15:04:59;27.30;57.20
38550;DHT22;24322;52.004;5.948;2022-07-29T15:07:25;27.40;57.40
38550;DHT22;24322;52.004;5.948;2022-07-29T15:09:51;27.40;58.60
38550;DHT22;24322;52.004;5.948;2022-07-29T15:12:16;27.30;57.60
38550;DHT22;24322;52.004;5.948;2022-07-29T15:14:42;27.30;57.60
38550;DHT22;24322;52.004;5.948;2022-07-29T15:17:08;27.30;57.50
38550;DHT22;24322;52.004;5.948;2022-07-29T15:19:34;27.20;56.50
38550;DHT22;24322;52.004;5.948;2022-07-29T15:22:00;27.20;56.50
38550;DHT22;24322;52.004;5.948;2022-07-29T15:24:26;27.10;57.70
38550;DHT22;24322;52.004;5.948;2022-07-29T15:26:51;27.00;58.50
38550;DHT22;24322;52.004;5.948;2022-07-29T15:29:17;27.00;59.20
38550;DHT22;24322;52.004;5.948;2022-07-29T15:31:43;26.90;60.00
38550;DHT22;24322;52.004;5.948;2022-07-29T15:34:08;26.80;59.20
38550;DHT22;24322;52.004;5.948;2022-07-29T15:36:34;26.80;59.60
38550;DHT22;24322;52.004;5.948;2022-07-29T15:39:00;26.70;59.30
38550;DHT22;24322;52.004;5.948;2022-07-29T15:41:26;26.50;59.60
38550;DHT22;24322;52.004;5.948;2022-07-29T15:43:52;26.40;59.80
38550;DHT22;24322;52.004;5.948;2022-07-29T15:46:18;26.30;61.10
38550;DHT22;24322;52.004;5.948;2022-07-29T15:49:04;26.20;62.60
38550;DHT22;24322;52.004;5.948;2022-07-29T15:51:31;26.10;64.00
38550;DHT22;24322;52.004;5.948;2022-07-29T15:53:57;26.00;62.00
38550;DHT22;24322;52.004;5.948;2022-07-29T15:56:23;25.90;61.10
38550;DHT22;24322;52.004;5.948;2022-07-29T15:58:49;25.80;61.70
38550;DHT22;24322;52.004;5.948;2022-07-29T16:01:15;25.70;61.70
38550;DHT22;24322;52.004;5.948;2022-07-29T16:03:41;25.60;62.70
38550;DHT22;24322;52.004;5.948;2022-07-29T16:06:06;25.50;62.70
38550;DHT22;24322;52.004;5.948;2022-07-29T16:08:32;25.50;63.50
38550;DHT22;24322;52.004;5.948;2022-07-29T16:10:58;25.40;64.50
38550;DHT22;24322;52.004;5.948;2022-07-29T16:13:23;25.30;64.90
38550;DHT22;24322;52.004;5.948;2022-07-29T16:15:49;25.20;66.00
38550;DHT22;24322;52.004;5.948;2022-07-29T16:18:14;25.10;67.00
38550;DHT22;24322;52.004;5.948;2022-07-29T16:20:40;25.00;68.20
38550;DHT22;24322;52.004;5.948;2022-07-29T16:23:07;25.00;66.30
38550;DHT22;24322;52.004;5.948;2022-07-29T16:25:35;24.90;66.80
38550;DHT22;24322;52.004;5.948;2022-07-29T16:28:01;24.80;67.80
38550;DHT22;24322;52.004;5.948;2022-07-29T16:30:26;24.80;67.20
38550;DHT22;24322;52.004;5.948;2022-07-29T16:32:52;24.70;69.30
38550;DHT22;24322;52.004;5.948;2022-07-29T16:35:18;24.70;70.40
38550;DHT22;24322;52.004;5.948;2022-07-29T16:37:43;24.60;71.10